createdAt,value
2023-03-16T00:01:48.201Z,-6.57
2023-03-16T00:04:14.651Z,-6.52
2023-03-16T00:06:40.766Z,-6.74
2023-03-16T00:09:06.934Z,-6.70
2023-03-16T00:11:33.094Z,-6.15
2023-03-16T00:13:59.217Z,-6.70
2023-03-16T00:16:25.422Z,-6.69
2023-03-16T00:18:51.611Z,-6.79
2023-03-16T00:21:17.753Z,-6.83
2023-03-16T00:23:43.868Z,-6.90
2023-03-16T00:26:10.034Z,-6.90
2023-03-16T00:28:36.273Z,-6.86
2023-03-16T00:31:02.415Z,-6.93
2023-03-16T00:33:28.655Z,-6.81
2023-03-16T00:35:56.322Z,-6.95
2023-03-16T00:38:22.558Z,-7.05
2023-03-16T00:40:48.789Z,-7.04
2023-03-16T00:43:14.909Z,-7.10
2023-03-16T00:45:41.082Z,-7.12
2023-03-16T00:48:07.180Z,-7.17
2023-03-16T00:50:33.269Z,-7.01
2023-03-16T00:52:59.429Z,-7.07
2023-03-16T00:55:25.865Z,-6.86
2023-03-16T00:57:52.096Z,-7.07
2023-03-16T01:00:18.249Z,-7.20
2023-03-16T01:02:44.492Z,-7.22
2023-03-16T01:05:10.650Z,-6.98
2023-03-16T01:07:36.777Z,-6.79
2023-03-16T01:10:02.928Z,-6.86
2023-03-16T01:12:29.392Z,-6.75
2023-03-16T01:14:55.570Z,-6.61
2023-03-16T01:17:21.920Z,-6.69
2023-03-16T01:19:48.190Z,-6.33
2023-03-16T01:22:14.318Z,-6.59
2023-03-16T01:24:40.779Z,-7.02
2023-03-16T01:27:07.017Z,-7.06
2023-03-16T01:29:33.474Z,-7.12
2023-03-16T01:31:59.872Z,-7.13
2023-03-16T01:34:26.037Z,-6.95
2023-03-16T01:36:52.183Z,-6.98
2023-03-16T01:39:18.343Z,-7.12
2023-03-16T01:41:44.542Z,-7.21
2023-03-16T01:44:10.676Z,-7.30
2023-03-16T01:46:36.937Z,-7.41
2023-03-16T01:49:03.193Z,-7.35
2023-03-16T01:51:29.687Z,-7.50
2023-03-16T01:53:56.118Z,-7.17
2023-03-16T01:56:22.377Z,-7.33
2023-03-16T01:58:48.680Z,-7.43
2023-03-16T02:01:14.882Z,-7.42
2023-03-16T02:03:41.018Z,-7.43
2023-03-16T02:06:07.166Z,-7.37
2023-03-16T02:08:33.278Z,-7.26
2023-03-16T02:10:59.604Z,-7.23
2023-03-16T02:13:25.747Z,-7.40
2023-03-16T02:15:52.078Z,-7.33
2023-03-16T02:18:18.569Z,-7.21
2023-03-16T02:20:44.792Z,-7.03
2023-03-16T02:23:10.910Z,-7.30
2023-03-16T02:25:37.154Z,-7.32
2023-03-16T02:28:03.388Z,-6.94
2023-03-16T02:30:29.975Z,-6.77
2023-03-16T02:32:56.670Z,-7.01
2023-03-16T02:35:22.872Z,-6.71
2023-03-16T02:37:48.987Z,-6.78
2023-03-16T02:40:15.473Z,-6.75
2023-03-16T02:42:41.580Z,-6.97
2023-03-16T02:45:07.853Z,-7.31
2023-03-16T02:47:33.977Z,-7.43
2023-03-16T02:50:00.273Z,-7.30
2023-03-16T02:52:26.430Z,-7.03
2023-03-16T02:54:52.688Z,-7.08
2023-03-16T02:57:18.916Z,-7.20
2023-03-16T02:59:45.355Z,-7.44
2023-03-16T03:02:11.489Z,-7.62
2023-03-16T03:04:37.725Z,-7.66
2023-03-16T03:07:03.950Z,-7.61
2023-03-16T03:09:30.143Z,-7.62
2023-03-16T03:11:56.445Z,-7.61
2023-03-16T03:14:22.709Z,-7.45
2023-03-16T03:16:48.869Z,-7.36
2023-03-16T03:19:15.008Z,-7.58
2023-03-16T03:21:41.129Z,-7.63
2023-03-16T03:24:07.610Z,-7.33
2023-03-16T03:26:33.931Z,-7.43
2023-03-16T03:29:00.025Z,-7.51
2023-03-16T03:31:26.197Z,-7.44
2023-03-16T03:33:52.467Z,-7.41
2023-03-16T03:36:18.586Z,-7.16
2023-03-16T03:38:44.851Z,-7.38
2023-03-16T03:41:11.035Z,-7.50
2023-03-16T03:43:37.169Z,-7.63
2023-03-16T03:46:03.464Z,-7.67
2023-03-16T03:48:29.660Z,-7.68
2023-03-16T03:50:55.925Z,-7.52
2023-03-16T03:53:22.077Z,-7.57
2023-03-16T03:55:48.319Z,-7.62
2023-03-16T03:58:14.558Z,-7.65
2023-03-16T04:00:41.012Z,-7.53
2023-03-16T04:03:07.417Z,-7.46
2023-03-16T04:05:33.722Z,-7.57
2023-03-16T04:08:00.231Z,-7.58
2023-03-16T04:10:26.627Z,-7.61
2023-03-16T04:12:52.933Z,-7.57
2023-03-16T04:15:19.414Z,-7.54
2023-03-16T04:17:45.549Z,-7.34
2023-03-16T04:20:11.684Z,-7.53
2023-03-16T04:22:38.120Z,-6.80
2023-03-16T04:25:04.265Z,-6.52
2023-03-16T04:27:30.505Z,-7.22
2023-03-16T04:29:56.882Z,-7.49
2023-03-16T04:32:23.210Z,-7.28
2023-03-16T04:34:49.657Z,-7.23
2023-03-16T04:37:15.750Z,-7.38
2023-03-16T04:39:41.919Z,-7.48
2023-03-16T04:42:08.033Z,-7.50
2023-03-16T04:44:34.130Z,-7.47
2023-03-16T04:47:00.366Z,-7.44
2023-03-16T04:49:26.525Z,-7.36
2023-03-16T04:51:52.605Z,-7.32
2023-03-16T04:54:18.867Z,-7.42
2023-03-16T04:56:45.022Z,-7.38
2023-03-16T04:59:11.154Z,-7.37
2023-03-16T05:01:37.360Z,-7.27
2023-03-16T05:04:03.553Z,-7.11
2023-03-16T05:06:30.052Z,-7.24
2023-03-16T05:08:56.240Z,-7.32
2023-03-16T05:11:22.342Z,-7.36
2023-03-16T05:13:48.606Z,-7.35
2023-03-16T05:16:14.817Z,-7.29
2023-03-16T05:18:40.991Z,-6.86
2023-03-16T05:21:07.212Z,-6.86
2023-03-16T05:23:33.751Z,-7.03
2023-03-16T05:25:59.928Z,-6.80
2023-03-16T05:28:26.104Z,-7.09
2023-03-16T05:30:52.257Z,-7.24
2023-03-16T05:33:18.390Z,-7.29
2023-03-16T05:35:44.614Z,-6.96
2023-03-16T05:38:10.798Z,-6.84
2023-03-16T05:40:36.963Z,-6.97
2023-03-16T05:43:03.243Z,-6.75
2023-03-16T05:45:29.378Z,-6.91
2023-03-16T05:47:55.498Z,-6.81
2023-03-16T05:50:21.699Z,-6.56
2023-03-16T05:52:48.157Z,-6.54
2023-03-16T05:55:14.600Z,-6.72
2023-03-16T05:57:40.891Z,-6.79
2023-03-16T06:00:06.985Z,-6.79
2023-03-16T06:02:33.280Z,-6.95
2023-03-16T06:04:59.793Z,-6.95
2023-03-16T06:07:28.757Z,-6.92
2023-03-16T06:09:55.300Z,-6.85
2023-03-16T06:12:21.565Z,-6.68
2023-03-16T06:14:47.820Z,-6.29
2023-03-16T06:17:13.958Z,-6.18
2023-03-16T06:19:40.110Z,-6.07
2023-03-16T06:22:06.363Z,-5.79
2023-03-16T06:24:32.559Z,-5.66
2023-03-16T06:26:59.506Z,-5.59
2023-03-16T06:29:25.634Z,-6.05
2023-03-16T06:31:51.874Z,-6.26
2023-03-16T06:34:18.220Z,-6.47
2023-03-16T06:36:44.421Z,-6.36
2023-03-16T06:39:10.604Z,-6.34
2023-03-16T06:41:36.749Z,-6.21
2023-03-16T06:44:03.192Z,-5.97
2023-03-16T06:46:29.672Z,-5.59
2023-03-16T06:48:55.857Z,-5.54
2023-03-16T06:51:21.991Z,-5.09
2023-03-16T06:53:48.155Z,-4.62
2023-03-16T06:56:14.313Z,-5.22
2023-03-16T06:58:40.752Z,-5.47
2023-03-16T07:01:07.286Z,-5.51
2023-03-16T07:03:33.745Z,-5.60
2023-03-16T07:05:59.925Z,-5.35
2023-03-16T07:08:26.049Z,-5.30
2023-03-16T07:10:52.191Z,-5.25
2023-03-16T07:13:18.349Z,-4.88
2023-03-16T07:15:44.565Z,-4.65
2023-03-16T07:18:10.725Z,-4.87
2023-03-16T07:20:36.850Z,-4.72
2023-03-16T07:23:03.149Z,-3.96
2023-03-16T07:25:29.275Z,-3.55
2023-03-16T07:27:55.730Z,-1.21
2023-03-16T07:30:21.859Z,-0.91
2023-03-16T07:32:48.101Z,0.26
2023-03-16T07:35:14.347Z,-0.30
2023-03-16T07:37:41.521Z,1.45
2023-03-16T07:40:07.651Z,8.44
2023-03-16T07:42:34.332Z,7.91
2023-03-16T07:45:00.552Z,6.21
2023-03-16T07:47:26.795Z,3.76
2023-03-16T07:49:53.254Z,3.37
2023-03-16T07:52:19.494Z,3.74
2023-03-16T07:54:45.939Z,5.61
2023-03-16T07:57:12.370Z,3.40
2023-03-16T07:59:38.573Z,2.17
2023-03-16T08:02:04.723Z,3.92
2023-03-16T08:04:30.841Z,2.68
2023-03-16T08:06:56.979Z,1.67
2023-03-16T08:09:23.276Z,2.39
2023-03-16T08:11:49.413Z,2.51
2023-03-16T08:14:15.738Z,2.13
2023-03-16T08:16:41.879Z,2.50
2023-03-16T08:19:08.038Z,4.08
2023-03-16T08:21:40.113Z,4.47
2023-03-16T08:24:14.948Z,4.46
2023-03-16T08:26:41.106Z,4.49
2023-03-16T08:29:09.813Z,4.52
2023-03-16T08:31:35.995Z,4.79
2023-03-16T08:34:02.193Z,6.18
2023-03-16T08:36:28.345Z,3.50
2023-03-16T08:39:06.151Z,2.66
2023-03-16T08:41:32.883Z,2.10
2023-03-16T08:43:59.129Z,3.14
2023-03-16T08:46:25.401Z,5.09
2023-03-16T08:48:51.587Z,5.31
2023-03-16T08:51:17.775Z,4.68
2023-03-16T08:53:44.014Z,5.16
2023-03-16T08:56:10.119Z,12.49
2023-03-16T08:58:38.459Z,15.00
2023-03-16T09:01:04.931Z,19.24
2023-03-16T09:03:31.182Z,20.16
2023-03-16T09:05:57.301Z,22.80
2023-03-16T09:08:23.447Z,20.88
2023-03-16T09:10:49.683Z,21.17
2023-03-16T09:13:15.975Z,21.55
2023-03-16T09:15:42.107Z,16.98
2023-03-16T09:18:08.230Z,19.51
2023-03-16T09:20:34.498Z,23.23
2023-03-16T09:23:00.981Z,25.45
2023-03-16T09:25:27.438Z,25.12
2023-03-16T09:27:54.377Z,25.15
2023-03-16T09:30:20.535Z,26.84
2023-03-16T09:32:46.774Z,25.82
2023-03-16T09:35:13.229Z,25.52
2023-03-16T09:37:45.504Z,26.46
2023-03-16T09:40:17.305Z,27.26
2023-03-16T09:42:43.470Z,27.39
2023-03-16T09:45:09.625Z,26.71
2023-03-16T09:47:35.936Z,27.52
2023-03-16T09:50:02.118Z,26.42
2023-03-16T09:52:28.298Z,27.30
2023-03-16T09:54:54.545Z,27.50
2023-03-16T09:57:20.666Z,28.88
2023-03-16T09:59:46.901Z,28.34
2023-03-16T10:02:13.130Z,23.72
2023-03-16T10:04:39.291Z,17.03
2023-03-16T10:07:05.611Z,14.79
2023-03-16T10:09:31.729Z,13.27
2023-03-16T10:11:57.867Z,12.36
2023-03-16T10:14:24.048Z,11.90
2023-03-16T10:16:50.621Z,11.54
2023-03-16T10:19:16.791Z,11.26
2023-03-16T10:21:42.973Z,10.40
2023-03-16T10:24:09.427Z,10.02
2023-03-16T10:26:35.588Z,9.37
2023-03-16T10:29:02.043Z,9.47
2023-03-16T10:31:28.415Z,9.40
2023-03-16T10:33:54.714Z,9.02
2023-03-16T10:36:20.996Z,9.08
2023-03-16T10:38:47.145Z,9.34
2023-03-16T10:41:13.401Z,8.95
2023-03-16T10:43:39.686Z,9.58
2023-03-16T10:46:06.005Z,9.61
2023-03-16T10:48:33.949Z,9.15
2023-03-16T10:51:00.199Z,9.21
2023-03-16T10:53:26.307Z,8.67
2023-03-16T10:55:52.431Z,8.58
2023-03-16T10:58:18.634Z,8.28
2023-03-16T11:00:44.754Z,8.19
2023-03-16T11:03:10.902Z,8.27
2023-03-16T11:05:37.264Z,8.39
2023-03-16T11:08:03.392Z,8.08
2023-03-16T11:10:29.529Z,8.00
2023-03-16T11:12:58.715Z,8.03
2023-03-16T11:15:26.707Z,7.93
2023-03-16T11:17:52.880Z,8.02
2023-03-16T11:20:19.111Z,7.99
2023-03-16T11:22:45.639Z,7.84
2023-03-16T11:25:11.852Z,7.97
2023-03-16T11:27:37.968Z,8.10
2023-03-16T11:30:04.119Z,7.85
2023-03-16T11:32:30.384Z,7.68
2023-03-16T11:34:56.842Z,7.62
2023-03-16T11:37:22.989Z,7.35
2023-03-16T11:39:49.436Z,7.48
2023-03-16T11:42:15.600Z,7.07
2023-03-16T11:44:41.761Z,7.02
2023-03-16T11:47:08.209Z,6.49
2023-03-16T11:49:34.343Z,6.23
2023-03-16T11:52:00.808Z,6.34
2023-03-16T11:54:27.014Z,6.42
2023-03-16T11:56:53.433Z,6.24
2023-03-16T11:59:19.872Z,6.00
2023-03-16T12:01:58.262Z,6.39
2023-03-16T12:04:26.953Z,6.23
2023-03-16T12:06:53.136Z,6.45
2023-03-16T12:09:19.426Z,6.50
2023-03-16T12:11:45.588Z,6.74
2023-03-16T12:14:11.902Z,6.90
2023-03-16T12:16:48.572Z,6.97
2023-03-16T12:19:15.761Z,6.99
2023-03-16T12:21:41.893Z,7.01
2023-03-16T12:24:08.028Z,7.25
2023-03-16T12:26:34.173Z,7.46
2023-03-16T12:29:00.310Z,7.08
2023-03-16T12:31:26.828Z,6.91
2023-03-16T12:33:53.320Z,7.17
2023-03-16T12:36:19.457Z,6.59
2023-03-16T12:38:45.585Z,6.93
2023-03-16T12:41:11.746Z,7.40
2023-03-16T12:43:38.201Z,7.28
2023-03-16T12:46:04.338Z,7.57
2023-03-16T12:48:30.645Z,7.49
2023-03-16T12:50:56.738Z,7.62
2023-03-16T12:53:22.870Z,7.99
2023-03-16T12:55:49.013Z,7.78
2023-03-16T12:58:15.140Z,7.80
2023-03-16T13:00:41.429Z,7.87
2023-03-16T13:03:07.665Z,8.16
2023-03-16T13:05:33.861Z,8.19
2023-03-16T13:08:00.029Z,8.25
2023-03-16T13:10:26.209Z,8.36
2023-03-16T13:12:52.341Z,8.49
2023-03-16T13:15:18.505Z,8.55
2023-03-16T13:17:44.676Z,8.42
2023-03-16T13:20:13.718Z,8.63
2023-03-16T13:22:44.288Z,8.54
2023-03-16T13:25:10.461Z,8.76
2023-03-16T13:27:36.583Z,8.77
2023-03-16T13:30:02.704Z,9.00
2023-03-16T13:32:29.179Z,9.01
2023-03-16T13:34:55.300Z,9.01
2023-03-16T13:37:21.458Z,9.01
2023-03-16T13:39:47.628Z,9.12
2023-03-16T13:42:13.762Z,8.77
2023-03-16T13:44:39.898Z,8.59
2023-03-16T13:47:06.042Z,8.68
2023-03-16T13:49:32.150Z,8.35
2023-03-16T13:51:58.320Z,7.74
2023-03-16T13:54:24.460Z,7.86
2023-03-16T13:56:50.617Z,7.88
2023-03-16T13:59:17.056Z,8.26
2023-03-16T14:01:43.523Z,8.19
2023-03-16T14:04:09.689Z,8.23
2023-03-16T14:06:35.870Z,8.31
2023-03-16T14:09:02.029Z,8.28
2023-03-16T14:11:28.173Z,8.16
2023-03-16T14:13:54.619Z,7.95
2023-03-16T14:16:20.895Z,8.12
2023-03-16T14:18:47.158Z,8.29
2023-03-16T14:21:13.319Z,8.29
2023-03-16T14:23:39.636Z,8.41
2023-03-16T14:26:05.873Z,8.25
2023-03-16T14:28:32.445Z,8.46
2023-03-16T14:30:58.659Z,8.04
2023-03-16T14:33:25.117Z,7.12
2023-03-16T14:35:53.610Z,6.85
2023-03-16T14:38:19.877Z,6.86
2023-03-16T14:40:46.030Z,6.67
2023-03-16T14:43:12.565Z,6.68
2023-03-16T14:45:38.815Z,6.56
2023-03-16T14:48:04.936Z,6.49
2023-03-16T14:50:31.114Z,6.38
2023-03-16T14:52:57.517Z,6.18
2023-03-16T14:55:23.960Z,5.91
2023-03-16T14:57:50.101Z,5.74
2023-03-16T15:00:16.554Z,5.64
2023-03-16T15:02:42.736Z,5.14
2023-03-16T15:05:08.935Z,5.18
2023-03-16T15:07:35.102Z,4.99
2023-03-16T15:10:01.553Z,5.21
2023-03-16T15:12:27.959Z,5.26
2023-03-16T15:14:54.123Z,5.06
2023-03-16T15:17:20.556Z,5.03
2023-03-16T15:19:46.696Z,5.04
2023-03-16T15:22:12.876Z,4.83
2023-03-16T15:24:39.058Z,5.00
2023-03-16T15:27:05.669Z,4.53
2023-03-16T15:29:31.765Z,4.41
2023-03-16T15:31:58.206Z,4.58
2023-03-16T15:34:24.319Z,4.97
2023-03-16T15:36:50.463Z,4.77
2023-03-16T15:39:16.716Z,4.66
2023-03-16T15:41:47.850Z,4.13
2023-03-16T15:44:14.342Z,4.03
2023-03-16T15:46:40.837Z,3.67
2023-03-16T15:49:07.074Z,3.46
2023-03-16T15:51:33.399Z,3.32
2023-03-16T15:53:59.709Z,3.30
2023-03-16T15:56:25.881Z,3.25
2023-03-16T15:58:52.163Z,3.12
2023-03-16T16:01:18.507Z,3.04
2023-03-16T16:03:44.738Z,2.77
2023-03-16T16:06:10.897Z,2.55
2023-03-16T16:08:37.016Z,2.63
2023-03-16T16:11:03.168Z,2.47
2023-03-16T16:13:43.200Z,2.32
2023-03-16T16:16:10.111Z,2.30
2023-03-16T16:18:36.350Z,2.36
2023-03-16T16:21:03.351Z,1.92
2023-03-16T16:23:29.516Z,1.97
2023-03-16T16:25:55.990Z,2.17
2023-03-16T16:28:22.310Z,2.24
2023-03-16T16:30:48.512Z,2.12
2023-03-16T16:33:14.846Z,1.84
2023-03-16T16:35:41.059Z,1.60
2023-03-16T16:38:07.253Z,1.72
2023-03-16T16:40:33.447Z,2.32
2023-03-16T16:42:59.575Z,2.12
2023-03-16T16:45:25.997Z,1.67
2023-03-16T16:47:52.318Z,1.56
2023-03-16T16:50:18.535Z,1.73
2023-03-16T16:52:44.680Z,1.88
2023-03-16T16:55:11.041Z,1.57
2023-03-16T16:57:37.263Z,1.41
2023-03-16T17:00:03.721Z,1.30
2023-03-16T17:02:29.882Z,1.55
2023-03-16T17:04:56.059Z,1.61
2023-03-16T17:07:22.249Z,1.54
2023-03-16T17:09:48.400Z,1.31
2023-03-16T17:12:14.854Z,1.58
2023-03-16T17:14:41.083Z,1.88
2023-03-16T17:17:07.268Z,1.62
2023-03-16T17:19:33.730Z,1.40
2023-03-16T17:21:59.897Z,1.64
2023-03-16T17:24:26.043Z,1.39
2023-03-16T17:26:52.209Z,1.19
2023-03-16T17:29:18.566Z,0.98
2023-03-16T17:31:44.704Z,0.95
2023-03-16T17:34:10.900Z,0.90
2023-03-16T17:36:37.050Z,0.81
2023-03-16T17:39:03.228Z,0.70
2023-03-16T17:41:32.443Z,0.57
2023-03-16T17:43:59.023Z,0.62
2023-03-16T17:46:25.380Z,0.62
2023-03-16T17:48:51.623Z,0.69
2023-03-16T17:51:18.094Z,0.72
2023-03-16T17:53:44.552Z,0.47
2023-03-16T17:56:10.682Z,0.45
2023-03-16T17:58:36.824Z,0.69
2023-03-16T18:01:03.001Z,0.75
2023-03-16T18:03:30.710Z,0.81
2023-03-16T18:05:57.084Z,0.51
2023-03-16T18:08:23.503Z,0.50
2023-03-16T18:10:49.744Z,0.49
2023-03-16T18:13:15.888Z,0.57
2023-03-16T18:15:42.063Z,0.48
2023-03-16T18:18:08.221Z,0.31
2023-03-16T18:20:34.586Z,0.42
2023-03-16T18:23:00.797Z,0.30
2023-03-16T18:25:27.023Z,0.29
2023-03-16T18:27:53.177Z,0.22
2023-03-16T18:30:19.337Z,0.21
2023-03-16T18:32:45.477Z,0.11
2023-03-16T18:35:11.705Z,0.30
2023-03-16T18:37:38.129Z,0.67
2023-03-16T18:40:04.262Z,0.62
2023-03-16T18:42:30.407Z,0.59
2023-03-16T18:44:56.541Z,0.41
2023-03-16T18:47:22.674Z,0.35
2023-03-16T18:49:49.010Z,0.12
2023-03-16T18:52:15.270Z,0.50
2023-03-16T18:54:41.443Z,0.56
2023-03-16T18:57:07.562Z,0.57
2023-03-16T18:59:33.692Z,0.57
2023-03-16T19:02:00.169Z,0.22
2023-03-16T19:04:26.546Z,0.35
2023-03-16T19:06:52.714Z,0.57
2023-03-16T19:09:18.866Z,0.07
2023-03-16T19:11:45.012Z,0.04
2023-03-16T19:14:11.210Z,-0.09
2023-03-16T19:16:37.399Z,-0.18
2023-03-16T19:19:03.560Z,0.26
2023-03-16T19:21:29.984Z,0.01
2023-03-16T19:23:56.440Z,-0.12
2023-03-16T19:26:22.585Z,-0.05
2023-03-16T19:28:48.810Z,0.19
2023-03-16T19:31:15.326Z,0.69
2023-03-16T19:33:41.700Z,0.68
2023-03-16T19:36:07.871Z,-0.09
2023-03-16T19:38:34.062Z,0.13
2023-03-16T19:41:00.173Z,0.43
2023-03-16T19:43:26.391Z,0.28
2023-03-16T19:45:52.545Z,-0.30
2023-03-16T19:48:18.720Z,0.13
2023-03-16T19:50:45.002Z,0.31
2023-03-16T19:53:11.165Z,-0.27
2023-03-16T19:55:37.321Z,-0.39
2023-03-16T19:58:03.471Z,-0.26
2023-03-16T20:00:29.559Z,-0.24
2023-03-16T20:02:55.697Z,-0.15
2023-03-16T20:05:22.125Z,-0.16
2023-03-16T20:07:48.265Z,0.05
2023-03-16T20:10:14.735Z,-0.11
2023-03-16T20:12:40.897Z,-0.31
2023-03-16T20:15:07.161Z,-0.51
2023-03-16T20:17:33.318Z,-0.51
2023-03-16T20:19:59.647Z,-0.02
2023-03-16T20:22:26.869Z,-0.21
2023-03-16T20:24:53.089Z,-0.28
2023-03-16T20:27:19.211Z,0.02
2023-03-16T20:29:45.352Z,-0.32
2023-03-16T20:32:11.572Z,-0.51
2023-03-16T20:34:37.704Z,-0.60
2023-03-16T20:37:03.873Z,-0.43
2023-03-16T20:39:30.132Z,-0.53
2023-03-16T20:41:56.281Z,-0.39
2023-03-16T20:44:22.507Z,0.51
2023-03-16T20:46:48.723Z,0.25
2023-03-16T20:49:14.966Z,0.37
2023-03-16T20:51:41.265Z,-0.45
2023-03-16T20:54:07.503Z,-0.11
2023-03-16T20:56:33.945Z,0.27
2023-03-16T20:59:00.212Z,0.11
2023-03-16T21:01:26.369Z,-0.25
2023-03-16T21:03:52.487Z,-0.50
2023-03-16T21:06:18.622Z,-0.61
2023-03-16T21:08:44.827Z,-0.46
2023-03-16T21:11:11.291Z,-0.42
2023-03-16T21:13:37.514Z,-0.40
2023-03-16T21:16:04.018Z,-0.34
2023-03-16T21:18:30.603Z,-0.63
2023-03-16T21:20:57.187Z,-0.56
2023-03-16T21:23:23.349Z,-0.41
2023-03-16T21:25:49.684Z,-0.31
2023-03-16T21:28:15.837Z,-0.64
2023-03-16T21:30:42.011Z,-0.78
2023-03-16T21:33:08.166Z,0.03
2023-03-16T21:35:34.275Z,0.22
2023-03-16T21:38:00.418Z,0.57
2023-03-16T21:40:26.588Z,-0.19
2023-03-16T21:42:52.737Z,0.11
2023-03-16T21:45:18.999Z,0.23
2023-03-16T21:47:45.157Z,0.27
2023-03-16T21:50:11.317Z,-0.16
2023-03-16T21:52:37.646Z,-0.03
2023-03-16T21:55:03.805Z,0.18
2023-03-16T21:57:29.969Z,-0.16
2023-03-16T21:59:56.136Z,-0.42
2023-03-16T22:02:22.863Z,0.31
2023-03-16T22:04:49.102Z,1.20
2023-03-16T22:07:15.212Z,0.74
2023-03-16T22:09:41.308Z,-0.34
2023-03-16T22:12:07.498Z,-0.03
2023-03-16T22:14:33.925Z,0.16
2023-03-16T22:17:00.155Z,-0.23
2023-03-16T22:19:26.356Z,-0.52
2023-03-16T22:21:52.792Z,-0.26
2023-03-16T22:24:18.912Z,-0.34
2023-03-16T22:26:45.018Z,-0.57
2023-03-16T22:29:11.164Z,-0.19
2023-03-16T22:31:37.333Z,-0.13
2023-03-16T22:34:03.553Z,-0.35
2023-03-16T22:36:29.652Z,0.56
2023-03-16T22:38:55.927Z,0.57
2023-03-16T22:41:22.083Z,0.13
2023-03-16T22:43:48.364Z,0.11
2023-03-16T22:46:14.624Z,0.33
2023-03-16T22:48:40.792Z,0.62
2023-03-16T22:51:06.919Z,-0.12
2023-03-16T22:53:33.044Z,-0.62
2023-03-16T22:55:59.270Z,-0.18
2023-03-16T22:58:25.365Z,0.22
2023-03-16T23:00:51.611Z,-0.31
2023-03-16T23:03:17.901Z,-0.34
2023-03-16T23:05:44.056Z,-0.19
2023-03-16T23:08:10.209Z,0.78
2023-03-16T23:10:36.457Z,0.23
2023-03-16T23:13:02.677Z,0.05
2023-03-16T23:15:29.126Z,0.28
2023-03-16T23:17:55.402Z,0.73
2023-03-16T23:20:21.854Z,0.33
2023-03-16T23:22:48.016Z,0.16
2023-03-16T23:25:14.255Z,0.22
2023-03-16T23:27:40.473Z,0.06
2023-03-16T23:30:06.582Z,-0.07
2023-03-16T23:32:32.863Z,0.34
2023-03-16T23:34:59.075Z,0.61
2023-03-16T23:37:25.220Z,0.53
2023-03-16T23:39:51.345Z,-0.16
2023-03-16T23:42:17.535Z,-0.27
2023-03-16T23:44:43.760Z,0.86
2023-03-16T23:47:09.917Z,0.36
2023-03-16T23:49:36.036Z,0.37
2023-03-16T23:52:02.270Z,0.24
2023-03-16T23:54:28.505Z,0.57
2023-03-16T23:56:54.830Z,0.78
2023-03-16T23:59:21.044Z,0.52
